aviador You're here:

KLSE Decoded Metar

LA CROSSE in WI, USA
Report Time2018-02-18 20:53:00
UTC Time2018-02-18 21:51:38
Flight Rules vfr VFR
Wind170° at 20 Gusting to 27 kt
W.Decomp.*RWY 18: 19.6 kt HW 4.2 kt LCW
RWY 13: 15.8 kt HW 12.3 kt RCW
RWY 21: 14.9 kt HW 13.4 kt LCW
W.Rank170° ranks 1
Current wind is above 170° avg. (8.6)
Visibility9999 m
Phenomena:N/A
Clouds:N/A
Expected CloudBase > 2,800 ft AGL from Temp-Dew spread
CeilingNone
Temp04°C (ISA -10)
Dew Point-3°C (61% RH)
AAT-5.6°C
QNH1007 hPa
Density Alt-246 ft
Elevation653 ft
Report Wrong Elevation
Raw Report
KLSE 182053Z 17020G27KT 10SM CLR 04/M03 A2975 RMK AO2 PK WND
16034/2010 SLP087 T00441028 56054=

Extra information for KLSE:More info

Metar Taf Metar & Taf Last 4 Metars F.Rules Stats Wind Profile Meteogram Temp Stats Airport Information Weather charts Add Link Nearby VenuesMetar ALERT Operation Metar Decoded Social comments

AIRNAV info for KLSE